createdAt,value
2022-11-24T00:04:04.215Z,7.13
2022-11-24T00:09:06.725Z,13.30
2022-11-24T00:14:08.316Z,8.90
2022-11-24T00:19:10.447Z,5.47
2022-11-24T00:24:12.243Z,7.00
2022-11-24T00:29:13.830Z,6.78
2022-11-24T00:34:17.730Z,4.40
2022-11-24T00:39:21.537Z,5.03
2022-11-24T00:44:23.118Z,8.75
2022-11-24T00:49:24.647Z,6.80
2022-11-24T00:54:26.200Z,4.82
2022-11-24T00:59:27.771Z,5.70
2022-11-24T01:04:29.340Z,7.30
2022-11-24T01:09:30.888Z,7.15
2022-11-24T01:14:43.393Z,12.15
2022-11-24T01:19:47.180Z,10.13
2022-11-24T01:24:48.765Z,9.32
2022-11-24T01:29:50.307Z,8.35
2022-11-24T01:34:55.183Z,6.35
2022-11-24T01:39:56.803Z,6.22
2022-11-24T01:45:34.839Z,4.85
2022-11-24T01:50:36.864Z,11.52
2022-11-24T01:55:39.679Z,7.63
2022-11-24T02:00:44.157Z,6.30
2022-11-24T02:06:13.499Z,6.82
2022-11-24T02:11:15.323Z,8.85
2022-11-24T02:16:17.375Z,4.93
2022-11-24T02:21:19.092Z,8.07
2022-11-24T02:26:35.572Z,6.45
2022-11-24T02:31:38.289Z,5.13
2022-11-24T02:36:39.883Z,5.72
2022-11-24T02:41:56.847Z,5.57
2022-11-24T02:47:06.670Z,6.68
2022-11-24T02:52:08.909Z,6.75
2022-11-24T02:57:11.491Z,5.55
2022-11-24T03:02:13.079Z,6.53
2022-11-24T03:07:14.953Z,8.35
2022-11-24T03:12:16.576Z,12.90
2022-11-24T03:17:18.144Z,10.15
2022-11-24T03:22:19.723Z,8.93
2022-11-24T03:27:21.355Z,8.40
2022-11-24T03:32:23.027Z,7.82
2022-11-24T03:37:24.648Z,6.70
2022-11-24T03:42:26.187Z,10.77
2022-11-24T03:47:27.730Z,9.25
2022-11-24T03:52:29.317Z,5.20
2022-11-24T03:57:30.905Z,7.97
2022-11-24T04:02:32.570Z,7.45
2022-11-24T04:07:34.187Z,8.32
2022-11-24T04:12:44.849Z,10.68
2022-11-24T04:17:47.925Z,8.20
2022-11-24T04:22:50.744Z,10.35
2022-11-24T04:27:54.501Z,10.95
2022-11-24T04:32:57.164Z,11.70
2022-11-24T04:38:02.580Z,9.88
2022-11-24T04:43:04.219Z,10.43
2022-11-24T04:48:06.420Z,7.03
2022-11-24T04:53:09.020Z,15.93
2022-11-24T04:58:11.288Z,10.40
2022-11-24T05:03:12.911Z,8.02
2022-11-24T05:08:14.468Z,11.30
2022-11-24T05:13:16.000Z,12.50
2022-11-24T05:18:17.609Z,6.60
2022-11-24T05:23:19.188Z,8.25
2022-11-24T05:28:20.727Z,9.52
2022-11-24T05:33:23.093Z,11.30
2022-11-24T05:38:24.787Z,8.45
2022-11-24T05:43:26.404Z,9.48
2022-11-24T05:48:28.156Z,11.48
2022-11-24T05:53:29.702Z,17.60
2022-11-24T05:58:31.314Z,13.95
2022-11-24T06:03:32.863Z,11.50
2022-11-24T06:08:34.416Z,10.75
2022-11-24T06:13:41.426Z,9.90
2022-11-24T06:18:45.591Z,14.95
2022-11-24T06:23:50.167Z,13.20
2022-11-24T06:28:51.767Z,11.38
2022-11-24T06:33:53.743Z,9.18
2022-11-24T06:38:55.354Z,11.43
2022-11-24T06:43:56.975Z,19.73
2022-11-24T06:48:59.842Z,19.65
2022-11-24T06:54:01.814Z,15.40
2022-11-24T06:59:03.415Z,13.93
2022-11-24T07:04:04.958Z,13.98
2022-11-24T07:09:06.891Z,10.27
2022-11-24T07:14:08.998Z,15.88
2022-11-24T07:19:12.990Z,12.27
2022-11-24T07:24:17.120Z,7.07
2022-11-24T07:29:19.059Z,7.38
2022-11-24T07:34:20.606Z,6.82
2022-11-24T07:39:22.158Z,5.38
2022-11-24T07:44:25.138Z,7.43
2022-11-24T07:49:26.821Z,3.15
2022-11-24T07:54:28.457Z,4.32
2022-11-24T07:59:29.999Z,4.45
2022-11-24T08:04:31.651Z,4.25
2022-11-24T08:09:33.316Z,3.92
2022-11-24T08:14:35.030Z,3.90
2022-11-24T08:19:39.352Z,2.97
2022-11-24T08:24:46.388Z,3.72
2022-11-24T08:29:47.955Z,2.22
2022-11-24T08:34:49.510Z,2.67
2022-11-24T08:39:52.420Z,1.77
2022-11-24T08:44:58.830Z,2.55
2022-11-24T08:50:00.972Z,1.95
2022-11-24T08:55:02.582Z,1.40
2022-11-24T09:00:05.415Z,2.35
2022-11-24T09:05:22.455Z,1.50
2022-11-24T09:10:28.884Z,1.50
2022-11-24T09:15:30.623Z,1.48
2022-11-24T09:20:32.212Z,2.05
2022-11-24T09:25:33.791Z,2.30
2022-11-24T09:30:35.404Z,3.85
2022-11-24T09:35:37.765Z,2.88
2022-11-24T09:40:39.394Z,5.32
2022-11-24T09:46:06.374Z,3.80
2022-11-24T09:51:12.147Z,3.88
2022-11-24T09:56:32.263Z,4.55
2022-11-24T10:01:37.132Z,5.82
2022-11-24T10:07:06.920Z,3.92
2022-11-24T10:12:27.571Z,6.72
2022-11-24T10:17:47.155Z,6.65
2022-11-24T10:23:03.926Z,5.03
2022-11-24T10:28:12.447Z,6.88
2022-11-24T10:33:28.777Z,8.02
2022-11-24T10:38:38.902Z,8.20
2022-11-24T10:43:42.182Z,10.57
2022-11-24T10:48:49.349Z,8.88
2022-11-24T10:53:59.717Z,9.10
2022-11-24T10:59:30.838Z,12.68
2022-11-24T11:04:35.376Z,7.80
2022-11-24T11:09:37.296Z,7.55
2022-11-24T11:14:38.986Z,7.75
2022-11-24T11:19:49.815Z,10.77
2022-11-24T11:25:03.819Z,9.68
2022-11-24T11:35:45.059Z,9.88
2022-11-24T11:40:50.491Z,12.38
2022-11-24T11:46:12.090Z,13.02
2022-11-24T11:51:26.741Z,10.75
2022-11-24T11:56:32.995Z,8.90
2022-11-24T12:01:50.581Z,9.45
2022-11-24T12:07:10.983Z,9.15
2022-11-24T12:12:43.501Z,7.88
2022-11-24T12:17:55.609Z,10.65
2022-11-24T12:23:26.809Z,10.27
2022-11-24T12:29:10.266Z,13.15
2022-11-24T12:34:33.516Z,9.55
2022-11-24T12:39:57.552Z,7.95
2022-11-24T12:45:08.277Z,8.20
2022-11-24T12:50:19.855Z,9.93
2022-11-24T12:55:23.587Z,11.65
2022-11-24T13:00:37.962Z,8.30
2022-11-24T13:06:17.978Z,8.90
2022-11-24T13:16:53.560Z,10.60
2022-11-24T13:22:04.522Z,8.43
2022-11-24T13:27:19.723Z,8.77
2022-11-24T13:32:21.413Z,8.82
2022-11-24T13:37:31.327Z,8.98
2022-11-24T13:42:56.372Z,4.72
2022-11-24T13:48:00.140Z,8.55
2022-11-24T13:53:15.616Z,7.90
2022-11-24T13:58:31.884Z,10.27
2022-11-24T14:04:28.113Z,8.90
2022-11-24T14:09:33.898Z,8.10
2022-11-24T14:14:35.617Z,6.38
2022-11-24T14:19:37.371Z,9.98
2022-11-24T14:24:41.609Z,6.88
2022-11-24T14:29:59.031Z,11.18
2022-11-24T14:35:00.977Z,10.35
2022-11-24T14:40:02.601Z,5.55
2022-11-24T14:45:04.556Z,6.78
2022-11-24T14:50:12.305Z,8.60
2022-11-24T14:55:48.915Z,10.57
2022-11-24T15:01:09.339Z,7.65
2022-11-24T15:06:19.893Z,8.70
2022-11-24T15:11:25.702Z,6.30
2022-11-24T15:16:29.120Z,10.77
2022-11-24T15:21:35.785Z,12.48
2022-11-24T15:26:41.985Z,8.38
2022-11-24T15:31:47.848Z,10.80
2022-11-24T15:36:54.008Z,9.07
2022-11-24T15:41:55.618Z,13.98
2022-11-24T15:46:57.312Z,12.98
2022-11-24T15:51:59.058Z,10.73
2022-11-24T15:57:00.642Z,12.85
2022-11-24T16:02:02.260Z,6.93
2022-11-24T16:07:06.257Z,11.63
2022-11-24T16:12:11.260Z,9.15
2022-11-24T16:17:12.849Z,8.27
2022-11-24T16:22:14.417Z,11.73
2022-11-24T16:27:15.968Z,12.68
2022-11-24T16:32:17.615Z,29.67
2022-11-24T16:37:21.011Z,14.13
2022-11-24T16:42:22.649Z,18.35
2022-11-24T16:47:24.342Z,20.30
2022-11-24T16:52:25.955Z,18.95
2022-11-24T16:57:27.754Z,12.68
2022-11-24T17:02:29.390Z,13.38
2022-11-24T17:07:31.351Z,12.30
2022-11-24T17:12:35.776Z,9.98
2022-11-24T17:17:37.637Z,7.95
2022-11-24T17:22:39.418Z,14.43
2022-11-24T17:27:41.108Z,9.68
2022-11-24T17:32:42.795Z,11.57
2022-11-24T17:37:44.340Z,12.13
2022-11-24T17:42:45.900Z,13.95
2022-11-24T17:47:47.455Z,10.88
2022-11-24T17:52:49.040Z,11.82
2022-11-24T17:57:50.668Z,13.13
2022-11-24T18:02:52.325Z,8.55
2022-11-24T18:07:55.129Z,9.77
2022-11-24T18:12:57.143Z,9.45
2022-11-24T18:17:58.719Z,9.45
2022-11-24T18:23:05.906Z,6.43
2022-11-24T18:28:08.368Z,7.45
2022-11-24T18:33:09.919Z,10.15
2022-11-24T18:38:11.463Z,11.50
2022-11-24T18:43:13.018Z,10.00
2022-11-24T18:48:15.093Z,6.88
2022-11-24T18:53:16.695Z,9.02
2022-11-24T18:58:18.291Z,13.48
2022-11-24T19:03:19.924Z,14.80
2022-11-24T19:08:21.488Z,7.65
2022-11-24T19:13:25.713Z,11.20
2022-11-24T19:18:29.380Z,12.57
2022-11-24T19:23:31.034Z,11.15
2022-11-24T19:28:33.333Z,9.30
2022-11-24T19:33:35.656Z,10.35
2022-11-24T19:38:37.484Z,12.40
2022-11-24T19:43:40.008Z,11.15
2022-11-24T19:48:43.788Z,10.13
2022-11-24T19:53:45.782Z,9.27
2022-11-24T19:58:48.598Z,10.30
2022-11-24T20:03:55.121Z,15.35
2022-11-24T20:09:01.011Z,14.52
2022-11-24T20:14:03.308Z,10.75
2022-11-24T20:19:07.972Z,9.20
2022-11-24T20:24:15.874Z,9.77
2022-11-24T20:29:18.426Z,11.25
2022-11-24T20:34:21.506Z,12.05
2022-11-24T20:39:27.940Z,10.25
2022-11-24T20:44:30.251Z,8.05
2022-11-24T20:49:31.867Z,7.63
2022-11-24T20:54:33.796Z,10.25
2022-11-24T20:59:35.516Z,11.15
2022-11-24T21:04:37.428Z,11.38
2022-11-24T21:09:39.625Z,11.85
2022-11-24T21:14:41.618Z,9.30
2022-11-24T21:19:43.231Z,16.42
2022-11-24T21:24:44.804Z,18.50
2022-11-24T21:29:46.360Z,11.18
2022-11-24T21:34:47.927Z,10.63
2022-11-24T21:39:49.499Z,11.00
2022-11-24T21:44:51.056Z,7.75
2022-11-24T21:49:52.783Z,19.48
2022-11-24T21:54:54.351Z,16.23
2022-11-24T21:59:55.939Z,11.07
2022-11-24T22:04:57.654Z,12.95
2022-11-24T22:09:59.341Z,10.55
2022-11-24T22:15:00.949Z,9.43
2022-11-24T22:20:02.694Z,11.38
2022-11-24T22:25:04.699Z,11.73
2022-11-24T22:30:06.992Z,15.70
2022-11-24T22:35:08.957Z,13.82
2022-11-24T22:40:10.836Z,13.90
2022-11-24T22:45:12.434Z,17.48
2022-11-24T22:50:14.347Z,12.40
2022-11-24T22:55:18.312Z,12.20
2022-11-24T23:00:20.163Z,12.35
2022-11-24T23:05:21.871Z,14.50
2022-11-24T23:10:23.510Z,13.55
2022-11-24T23:15:25.095Z,15.85
2022-11-24T23:20:26.676Z,14.27
2022-11-24T23:25:28.352Z,15.18
2022-11-24T23:30:29.904Z,13.82
2022-11-24T23:35:31.488Z,12.90
2022-11-24T23:40:33.210Z,17.48
2022-11-24T23:45:34.793Z,16.25
2022-11-24T23:50:36.406Z,18.75
2022-11-24T23:55:38.119Z,15.13
